Time;durP1;ratioP1;P1;durP2;ratioP2;P2;SDS_P1;SDS_P2;PMS_P1;PMS_P2;Temp;Humidity;BMP_temperature;BMP_pressure;BME280_temperature;BME280_humidity;BME280_pressure;Samples;Min_cycle;Max_cycle;Signal;HPM_P1;HPM_P2
2022/03/12 00:01:31;;;;;;;17.50;13.53;;;1.80;95.10;;;;;;5052672;28;20536;-80
2022/03/12 00:04:00;;;;;;;20.80;15.00;;;1.90;96.20;;;;;;5052162;28;21033;-79
2022/03/12 00:06:29;;;;;;;25.00;16.67;;;1.90;97.30;;;;;;5052755;28;20462;-79
2022/03/12 00:08:56;;;;;;;26.03;19.03;;;2.00;98.00;;;;;;5052385;28;20462;-80
2022/03/12 00:11:26;;;;;;;23.00;15.97;;;1.90;99.30;;;;;;5052450;28;20454;-80
2022/03/12 00:13:55;;;;;;;20.37;15.67;;;1.90;99.40;;;;;;5051922;28;20482;-78
2022/03/12 00:16:24;;;;;;;24.67;15.97;;;2.00;99.90;;;;;;5051889;28;20803;-78
2022/03/12 00:18:55;;;;;;;19.70;13.80;;;2.00;99.90;;;;;;5051804;28;20755;-79
2022/03/12 00:21:23;;;;;;;19.37;14.33;;;2.00;99.90;;;;;;5051300;28;20512;-79
2022/03/12 00:23:56;;;;;;;18.93;13.40;;;1.80;99.90;;;;;;5050794;28;20844;-78
2022/03/12 00:26:24;;;;;;;19.30;13.33;;;1.80;99.90;;;;;;5051297;28;20457;-79
2022/03/12 00:28:54;;;;;;;17.73;13.70;;;1.80;99.90;;;;;;5051159;28;20458;-79
2022/03/12 00:31:21;;;;;;;21.07;13.73;;;1.70;99.90;;;;;;5051346;28;20508;-79
2022/03/12 00:33:48;;;;;;;18.37;13.50;;;1.80;99.90;;;;;;5050987;28;20477;-79
2022/03/12 00:36:17;;;;;;;21.10;15.67;;;1.90;99.90;;;;;;5051184;28;20529;-77
2022/03/12 00:38:45;;;;;;;21.93;15.67;;;1.50;99.90;;;;;;5051183;28;20537;-78
2022/03/12 00:41:14;;;;;;;20.47;15.80;;;1.40;99.90;;;;;;5051210;28;20446;-77
2022/03/12 00:43:42;;;;;;;21.50;14.90;;;1.50;99.90;;;;;;5051018;28;20486;-78
2022/03/12 00:46:09;;;;;;;17.73;13.27;;;1.50;99.90;;;;;;5050686;28;20461;-78
2022/03/12 00:48:38;;;;;;;22.90;14.13;;;1.50;99.90;;;;;;5050910;28;20457;-79
2022/03/12 00:51:06;;;;;;;19.27;13.33;;;1.50;99.90;;;;;;5050792;28;20926;-77
2022/03/12 00:53:34;;;;;;;18.43;12.83;;;1.50;99.90;;;;;;5050555;28;20450;-80
2022/03/12 00:56:01;;;;;;;18.43;11.97;;;1.50;99.90;;;;;;5050753;28;20532;-78
2022/03/12 00:58:30;;;;;;;18.47;13.70;;;1.50;99.90;;;;;;5050221;28;20458;-79
2022/03/12 01:00:57;;;;;;;16.70;12.47;;;1.50;99.90;;;;;;5050983;28;20450;-79
2022/03/12 01:03:24;;;;;;;16.67;12.33;;;1.50;99.90;;;;;;5049762;28;20498;-79
2022/03/12 01:05:58;;;;;;;16.03;11.10;;;1.60;99.90;;;;;;5050145;28;20810;-78
2022/03/12 01:08:27;;;;;;;18.33;11.40;;;1.60;99.90;;;;;;5050510;28;20449;-78
2022/03/12 01:10:56;;;;;;;16.53;12.03;;;1.60;99.90;;;;;;5050252;28;20484;-79
2022/03/12 01:13:23;;;;;;;15.77;10.97;;;1.60;99.90;;;;;;5050117;28;20772;-79
2022/03/12 01:15:52;;;;;;;12.73;9.30;;;1.60;99.90;;;;;;5050386;28;20453;-78
2022/03/12 01:18:21;;;;;;;14.90;10.23;;;1.60;99.90;;;;;;5050386;28;20458;-77
2022/03/12 01:20:49;;;;;;;13.80;9.50;;;1.60;99.90;;;;;;5050538;28;20450;-78
2022/03/12 01:23:18;;;;;;;15.03;10.30;;;1.70;99.90;;;;;;5050269;28;20863;-78
2022/03/12 01:25:47;;;;;;;14.67;10.70;;;1.80;99.90;;;;;;5050040;28;20601;-78
2022/03/12 01:28:17;;;;;;;15.50;10.70;;;1.60;99.90;;;;;;5050178;28;20564;-78
2022/03/12 01:30:44;;;;;;;16.17;10.47;;;1.60;99.90;;;;;;5049740;28;20454;-78
2022/03/12 01:33:13;;;;;;;12.20;8.50;;;1.60;99.90;;;;;;5050255;28;20810;-77
2022/03/12 01:35:40;;;;;;;13.50;9.87;;;1.60;99.90;;;;;;5050004;28;20466;-78
2022/03/12 01:38:08;;;;;;;10.07;7.77;;;1.60;99.90;;;;;;5049984;28;20457;-78
2022/03/12 01:40:36;;;;;;;11.80;8.47;;;1.60;99.90;;;;;;5050023;28;20445;-79
2022/03/12 01:43:04;;;;;;;10.90;7.83;;;1.50;99.90;;;;;;5050011;28;20917;-78
2022/03/12 01:45:35;;;;;;;12.97;8.00;;;1.40;99.90;;;;;;5049780;28;20474;-78
2022/03/12 01:48:04;;;;;;;11.57;6.97;;;1.40;99.90;;;;;;5049634;28;20940;-77
2022/03/12 01:50:34;;;;;;;9.10;5.70;;;1.40;99.90;;;;;;5049606;28;20461;-78
2022/03/12 01:53:07;;;;;;;8.27;5.63;;;1.30;99.90;;;;;;5049305;28;20450;-79
2022/03/12 01:55:35;;;;;;;7.43;5.20;;;0.90;99.90;;;;;;5049769;28;20543;-78
2022/03/12 01:58:04;;;;;;;9.30;6.13;;;0.40;99.90;;;;;;5049195;28;20854;-77
2022/03/12 02:00:43;;;;;;;7.77;5.73;;;0.10;99.90;;;;;;5049748;28;20450;-77
2022/03/12 02:03:11;;;;;;;9.47;6.53;;;-0.20;99.90;;;;;;5049734;28;20841;-78
2022/03/12 02:05:40;;;;;;;12.03;6.87;;;-0.40;99.90;;;;;;5049499;28;20819;-78
2022/03/12 02:08:09;;;;;;;11.20;7.30;;;-0.70;99.90;;;;;;5049613;28;20511;-78
2022/03/12 02:10:37;;;;;;;11.23;7.50;;;-0.70;99.90;;;;;;5049519;28;20454;-78
2022/03/12 02:13:04;;;;;;;9.57;6.57;;;-0.80;99.90;;;;;;5049498;28;20465;-78
2022/03/12 02:15:31;;;;;;;11.17;8.53;;;-0.70;99.90;;;;;;5052564;28;20813;-79
2022/03/12 02:17:58;;;;;;;10.87;8.03;;;-0.70;99.90;;;;;;5053659;28;20545;-78
2022/03/12 02:20:25;;;;;;;11.17;7.83;;;-0.60;99.90;;;;;;5035506;28;20454;-78
2022/03/12 02:22:54;;;;;;;12.20;6.67;;;-0.60;99.90;;;;;;5053459;28;20493;-78
2022/03/12 02:25:28;;;;;;;10.27;6.90;;;-0.70;99.90;;;;;;5052810;28;20543;-77
2022/03/12 02:27:56;;;;;;;9.63;6.20;;;-0.70;99.90;;;;;;5053232;28;20575;-78
2022/03/12 02:30:34;;;;;;;9.53;5.93;;;-0.60;99.90;;;;;;5053176;28;20533;-78
2022/03/12 02:33:03;;;;;;;10.90;7.10;;;-0.60;99.90;;;;;;5059581;28;20449;-78
2022/03/12 02:35:35;;;;;;;10.33;6.90;;;-0.60;99.90;;;;;;5064505;28;20469;-80
2022/03/12 02:38:03;;;;;;;9.33;6.40;;;-0.40;99.90;;;;;;5064488;28;20508;-78
2022/03/12 02:40:33;;;;;;;9.77;6.60;;;-0.50;99.90;;;;;;5066786;28;20446;-78
2022/03/12 02:43:01;;;;;;;12.70;7.27;;;-0.30;99.90;;;;;;5054495;28;20500;-80
2022/03/12 02:45:29;;;;;;;12.00;7.30;;;0.00;99.90;;;;;;5053511;28;20821;-78
2022/03/12 02:47:58;;;;;;;10.60;6.93;;;0.00;99.90;;;;;;5053685;28;20631;-78
2022/03/12 02:50:25;;;;;;;12.03;7.63;;;-0.30;99.90;;;;;;5053166;28;20751;-78
2022/03/12 02:52:53;;;;;;;11.73;7.53;;;-0.50;99.90;;;;;;5053093;28;20461;-78
2022/03/12 02:55:22;;;;;;;10.83;6.70;;;-0.30;99.90;;;;;;5053205;28;20473;-78
2022/03/12 02:57:52;;;;;;;11.83;8.07;;;-0.10;99.90;;;;;;5053008;28;20934;-78
2022/03/12 03:00:22;;;;;;;11.00;7.43;;;-0.10;99.90;;;;;;5053105;28;20944;-79
2022/03/12 03:02:53;;;;;;;8.43;5.67;;;0.00;99.90;;;;;;5053164;28;20482;-78
2022/03/12 03:05:31;;;;;;;8.37;6.33;;;0.30;99.90;;;;;;5052993;28;20486;-78
2022/03/12 03:08:00;;;;;;;9.50;7.30;;;0.40;99.90;;;;;;5052909;28;20457;-79
2022/03/12 03:10:32;;;;;;;12.53;6.30;;;0.60;99.90;;;;;;5052594;28;20533;-77
2022/03/12 03:13:11;;;;;;;8.60;6.40;;;0.50;99.90;;;;;;5052735;28;20529;-78
2022/03/12 03:15:39;;;;;;;8.43;6.07;;;0.50;99.90;;;;;;5052575;28;20955;-77
2022/03/12 03:18:11;;;;;;;9.40;6.07;;;0.70;99.90;;;;;;5052671;28;20450;-78
2022/03/12 03:20:39;;;;;;;10.33;6.50;;;0.80;99.90;;;;;;5052410;28;20987;-78
2022/03/12 03:23:07;;;;;;;8.40;6.00;;;0.80;99.90;;;;;;5052454;28;21048;-78
2022/03/12 03:25:34;;;;;;;10.80;7.00;;;0.60;99.90;;;;;;5050660;28;20481;-79
2022/03/12 03:28:03;;;;;;;12.57;7.53;;;0.50;99.90;;;;;;5052305;28;20454;-78
2022/03/12 03:30:35;;;;;;;10.93;8.30;;;0.40;99.90;;;;;;5052248;28;20489;-78
2022/03/12 03:33:02;;;;;;;12.93;7.50;;;0.50;99.90;;;;;;5052212;28;20527;-78
2022/03/12 03:35:30;;;;;;;10.80;7.33;;;0.30;99.90;;;;;;5052526;28;20480;-78
2022/03/12 03:37:58;;;;;;;9.33;6.73;;;0.10;99.90;;;;;;5052549;28;20465;-78
2022/03/12 03:40:25;;;;;;;9.53;6.90;;;0.30;99.90;;;;;;5052741;28;20767;-79
2022/03/12 03:42:53;;;;;;;12.20;7.97;;;0.50;99.90;;;;;;5052249;28;20497;-78
2022/03/12 03:45:24;;;;;;;11.37;7.50;;;0.70;99.90;;;;;;5051995;28;20520;-79
2022/03/12 03:47:52;;;;;;;10.40;7.60;;;0.70;99.90;;;;;;5052153;28;20457;-79
2022/03/12 03:50:25;;;;;;;13.30;8.20;;;0.70;99.90;;;;;;5051720;28;20442;-79
2022/03/12 03:52:56;;;;;;;12.20;8.10;;;0.80;99.90;;;;;;5052340;28;20614;-79
2022/03/12 03:55:25;;;;;;;13.93;8.33;;;0.70;99.90;;;;;;5051838;28;20478;-78
2022/03/12 03:57:54;;;;;;;11.17;7.97;;;0.70;99.90;;;;;;5051765;28;21025;-78
2022/03/12 04:00:23;;;;;;;12.40;8.13;;;0.80;99.90;;;;;;5051532;28;20902;-79
2022/03/12 04:03:02;;;;;;;11.27;8.37;;;0.90;99.90;;;;;;5051615;28;20539;-79
2022/03/12 04:05:34;;;;;;;11.30;8.13;;;0.90;99.90;;;;;;5051667;28;20489;-79
2022/03/12 04:08:01;;;;;;;14.40;8.53;;;0.60;99.90;;;;;;5051398;28;20857;-78
2022/03/12 04:10:28;;;;;;;12.43;8.30;;;0.60;99.90;;;;;;5051721;28;20450;-79
2022/03/12 04:12:57;;;;;;;11.27;7.23;;;0.80;99.90;;;;;;5051584;28;20446;-78
2022/03/12 04:15:25;;;;;;;9.80;7.10;;;0.90;99.90;;;;;;5051836;28;20834;-78
2022/03/12 04:17:53;;;;;;;10.17;7.03;;;1.00;99.90;;;;;;5051107;28;20458;-78
2022/03/12 04:20:22;;;;;;;13.03;7.43;;;1.10;99.90;;;;;;5051133;28;20462;-78
2022/03/12 04:22:51;;;;;;;11.73;7.30;;;1.30;99.90;;;;;;5051431;28;20476;-77
2022/03/12 04:25:20;;;;;;;13.10;8.77;;;1.20;99.90;;;;;;5050810;28;20592;-77
2022/03/12 04:27:48;;;;;;;13.10;8.90;;;1.10;99.90;;;;;;5051273;28;20490;-78
2022/03/12 04:30:17;;;;;;;13.77;8.10;;;1.10;99.90;;;;;;5050915;28;20819;-78
2022/03/12 04:32:46;;;;;;;13.80;8.50;;;1.00;99.90;;;;;;5050701;28;20458;-78
2022/03/12 04:35:14;;;;;;;12.20;8.80;;;1.00;99.90;;;;;;5050781;28;20474;-78
2022/03/12 04:37:41;;;;;;;10.80;8.20;;;1.00;99.90;;;;;;5050775;28;20453;-81
2022/03/12 04:40:12;;;;;;;12.50;8.83;;;1.20;99.90;;;;;;5050935;28;20537;-77
2022/03/12 04:42:43;;;;;;;11.63;8.13;;;1.10;99.90;;;;;;5050859;28;20806;-78
2022/03/12 04:45:13;;;;;;;16.03;9.30;;;1.30;99.90;;;;;;5050854;28;20844;-78
2022/03/12 04:47:43;;;;;;;12.47;8.50;;;1.40;99.90;;;;;;5050580;28;20917;-79
2022/03/12 04:50:12;;;;;;;11.50;8.70;;;1.40;99.90;;;;;;5050761;28;20458;-79
2022/03/12 04:52:41;;;;;;;13.90;9.60;;;1.20;99.90;;;;;;5050768;28;20528;-78
2022/03/12 04:55:10;;;;;;;16.53;10.40;;;1.30;99.90;;;;;;5050632;28;20484;-79
2022/03/12 04:57:37;;;;;;;12.60;9.27;;;1.30;99.90;;;;;;5050287;28;21003;-68
2022/03/12 05:00:05;;;;;;;14.97;9.00;;;1.10;99.90;;;;;;5049759;28;20494;-68
2022/03/12 05:02:33;;;;;;;14.37;9.90;;;1.20;99.90;;;;;;5050476;28;20473;-69
2022/03/12 05:05:00;;;;;;;15.00;10.00;;;1.00;99.90;;;;;;5050142;28;20501;-68
2022/03/12 05:07:29;;;;;;;18.50;10.60;;;1.20;99.90;;;;;;5050261;28;20864;-66
2022/03/12 05:09:57;;;;;;;15.50;11.53;;;1.30;99.90;;;;;;5050169;28;20446;-69
2022/03/12 05:12:24;;;;;;;18.03;11.10;;;1.20;99.90;;;;;;5049993;28;20507;-67
2022/03/12 05:14:53;;;;;;;16.37;11.60;;;1.00;99.90;;;;;;5049807;28;20492;-68
2022/03/12 05:17:26;;;;;;;14.90;11.00;;;1.00;99.90;;;;;;5049707;28;20464;-66
2022/03/12 05:19:53;;;;;;;15.90;12.43;;;1.00;99.90;;;;;;5049779;28;20473;-68
2022/03/12 05:22:21;;;;;;;15.03;11.07;;;1.10;99.90;;;;;;5049309;28;20507;-65
2022/03/12 05:24:49;;;;;;;18.10;11.77;;;1.10;99.90;;;;;;5055077;28;20509;-76
2022/03/12 05:27:17;;;;;;;18.27;11.90;;;0.90;99.90;;;;;;5056448;28;20486;-75
2022/03/12 05:29:46;;;;;;;18.80;12.87;;;0.90;99.90;;;;;;5050706;28;20465;-77
2022/03/12 05:32:13;;;;;;;16.67;11.83;;;0.80;99.90;;;;;;5050092;28;20461;-76
2022/03/12 05:34:41;;;;;;;18.43;12.03;;;0.70;99.90;;;;;;5049803;28;20481;-76
2022/03/12 05:37:09;;;;;;;19.40;13.07;;;0.90;99.90;;;;;;5049907;28;20458;-76
2022/03/12 05:39:37;;;;;;;16.47;11.77;;;1.10;99.90;;;;;;5049786;28;20511;-73
2022/03/12 05:42:07;;;;;;;19.43;14.17;;;1.00;99.90;;;;;;5049638;28;20545;-76
2022/03/12 05:44:39;;;;;;;18.10;12.23;;;0.90;99.90;;;;;;5049721;28;20496;-76
2022/03/12 05:47:09;;;;;;;20.30;12.50;;;1.00;99.90;;;;;;5050062;28;20952;-68
2022/03/12 05:49:36;;;;;;;25.43;11.40;;;1.10;99.90;;;;;;5049310;28;20468;-80
2022/03/12 05:52:04;;;;;;;20.93;12.53;;;1.30;99.90;;;;;;5049565;28;20664;-71
2022/03/12 05:54:31;;;;;;;18.33;10.97;;;1.50;99.90;;;;;;5049353;28;20462;-69
2022/03/12 05:56:59;;;;;;;16.80;11.57;;;1.60;99.90;;;;;;5049095;28;21027;-71
2022/03/12 05:59:27;;;;;;;17.50;11.07;;;1.70;99.90;;;;;;5049390;28;20461;-70
2022/03/12 06:01:54;;;;;;;16.57;11.13;;;1.70;99.90;;;;;;5049032;28;20446;-70
2022/03/12 06:04:27;;;;;;;15.40;10.17;;;1.60;99.90;;;;;;5049297;28;20490;-71
2022/03/12 06:06:54;;;;;;;16.57;10.67;;;1.60;99.90;;;;;;5049383;28;20460;-71
2022/03/12 06:09:21;;;;;;;17.67;10.87;;;1.70;99.90;;;;;;5049148;28;20575;-70
2022/03/12 06:11:53;;;;;;;17.93;11.43;;;1.60;99.90;;;;;;5049207;28;20446;-72
2022/03/12 06:14:21;;;;;;;24.87;11.47;;;1.40;99.90;;;;;;5049250;28;20478;-69
2022/03/12 06:16:50;;;;;;;14.43;10.27;;;1.50;99.90;;;;;;5049328;28;20449;-70
2022/03/12 06:19:19;;;;;;;16.30;10.80;;;1.50;99.90;;;;;;5049364;28;20482;-69
2022/03/12 06:21:46;;;;;;;19.57;10.90;;;1.30;99.90;;;;;;5049131;28;20458;-77
2022/03/12 06:24:14;;;;;;;14.90;10.30;;;1.50;99.90;;;;;;5048667;28;20501;-70
2022/03/12 06:26:44;;;;;;;14.57;9.57;;;1.50;99.90;;;;;;5049224;28;20469;-69
2022/03/12 06:29:12;;;;;;;14.07;9.47;;;1.60;99.90;;;;;;5049219;28;20453;-71
2022/03/12 06:31:39;;;;;;;13.93;10.73;;;1.70;99.90;;;;;;5048698;28;20489;-80
2022/03/12 06:34:12;;;;;;;14.63;9.07;;;1.90;99.90;;;;;;5049122;28;20510;-75
2022/03/12 06:36:40;;;;;;;12.50;7.70;;;1.80;99.90;;;;;;5049088;28;20965;-82
2022/03/12 06:39:08;;;;;;;11.30;7.60;;;1.80;99.90;;;;;;5049306;28;20485;-75
2022/03/12 06:41:39;;;;;;;12.57;8.70;;;2.20;99.90;;;;;;5049147;28;20606;-77
2022/03/12 06:44:08;;;;;;;11.43;7.63;;;2.10;99.90;;;;;;5049075;28;21026;-72
2022/03/12 06:46:36;;;;;;;11.23;8.20;;;2.40;99.90;;;;;;5048870;28;20457;-68
2022/03/12 06:49:04;;;;;;;16.20;7.60;;;2.50;99.90;;;;;;5048635;28;20870;-70
2022/03/12 06:51:33;;;;;;;18.53;8.80;;;2.70;99.90;;;;;;5048807;28;20462;-69
2022/03/12 06:54:00;;;;;;;9.37;6.03;;;2.80;99.70;;;;;;5048760;28;20896;-69
2022/03/12 06:56:28;;;;;;;12.13;6.60;;;2.90;97.60;;;;;;5048960;28;20457;-70
2022/03/12 06:58:56;;;;;;;11.37;7.47;;;3.00;95.10;;;;;;5048723;28;20450;-69
2022/03/12 07:01:23;;;;;;;9.23;6.33;;;3.10;93.70;;;;;;5051503;28;20485;-69
2022/03/12 07:03:50;;;;;;;11.90;8.10;;;3.10;92.50;;;;;;5052223;28;20494;-68
2022/03/12 07:06:18;;;;;;;12.97;7.77;;;3.10;92.00;;;;;;5052430;28;20449;-77
2022/03/12 07:08:47;;;;;;;10.90;8.03;;;3.20;92.30;;;;;;5052258;28;20453;-70
2022/03/12 07:11:15;;;;;;;15.00;9.80;;;3.30;92.60;;;;;;5052278;28;20450;-70
2022/03/12 07:13:42;;;;;;;14.10;9.10;;;3.40;91.70;;;;;;5051896;28;20480;-74
2022/03/12 07:16:09;;;;;;;13.50;8.60;;;3.20;91.60;;;;;;5052209;28;20453;-69
2022/03/12 07:18:38;;;;;;;14.43;9.57;;;3.30;91.50;;;;;;5052223;28;20449;-70
2022/03/12 07:21:05;;;;;;;14.40;9.37;;;3.40;91.60;;;;;;5051860;28;20540;-76
2022/03/12 07:23:32;;;;;;;11.77;9.17;;;3.50;92.00;;;;;;5052502;28;20453;-77
2022/03/12 07:26:01;;;;;;;13.93;9.80;;;3.70;91.60;;;;;;5051986;28;20473;-80
2022/03/12 07:28:28;;;;;;;16.30;9.30;;;3.80;90.50;;;;;;5052553;28;20920;-78
2022/03/12 07:31:08;;;;;;;;;;;;;;;;;;;;;
2022/03/12 07:33:35;;;;;;;10.60;6.97;;;3.60;86.00;;;;;;5046955;28;21047;-78
2022/03/12 07:36:11;;;;;;;12.47;8.43;;;3.90;86.60;;;;;;5052309;28;20457;-77
2022/03/12 07:38:38;;;;;;;12.87;9.00;;;3.90;88.50;;;;;;5051966;28;20462;-72
2022/03/12 07:41:07;;;;;;;12.07;7.93;;;4.20;85.20;;;;;;5051897;28;20450;-73
2022/03/12 07:43:34;;;;;;;10.73;7.10;;;4.40;85.80;;;;;;5051932;28;20894;-73
2022/03/12 07:46:02;;;;;;;11.00;7.73;;;4.60;81.70;;;;;;5051789;28;20497;-72
2022/03/12 07:48:29;;;;;;;11.23;6.80;;;4.60;78.60;;;;;;5051806;28;20458;-74
2022/03/12 07:50:56;;;;;;;12.30;7.63;;;4.60;78.50;;;;;;5051307;28;20454;-73
2022/03/12 07:53:23;;;;;;;8.93;6.77;;;4.80;75.50;;;;;;5051638;28;20453;-74
2022/03/12 07:55:50;;;;;;;10.97;7.43;;;4.60;79.10;;;;;;5051520;28;21025;-73
2022/03/12 07:58:19;;;;;;;10.70;7.20;;;4.50;80.40;;;;;;5051646;28;20446;-72
2022/03/12 08:00:46;;;;;;;9.53;6.80;;;4.50;79.50;;;;;;5051721;28;20450;-74
2022/03/12 08:03:13;;;;;;;12.50;7.00;;;4.50;77.70;;;;;;5051666;28;20454;-71
2022/03/12 08:05:41;;;;;;;12.83;7.97;;;4.20;79.00;;;;;;5051278;28;20533;-73
2022/03/12 08:08:08;;;;;;;11.10;7.37;;;4.30;78.90;;;;;;5054286;28;20460;-72
2022/03/12 08:11:24;;;;;;;11.60;6.73;;;4.20;75.80;;;;;;5055042;28;20465;-71
2022/03/12 08:13:23;;;;;;;10.50;6.70;;;4.10;76.50;;;;;;5057091;28;20936;-71
2022/03/12 08:15:51;;;;;;;9.57;6.93;;;4.30;76.00;;;;;;5057813;28;20449;-74
2022/03/12 08:18:18;;;;;;;8.90;6.40;;;4.40;76.50;;;;;;5051204;28;21747;-71
2022/03/12 08:20:45;;;;;;;9.13;6.50;;;4.40;75.90;;;;;;5051222;28;20500;-73
2022/03/12 08:23:13;;;;;;;11.60;7.53;;;4.50;74.90;;;;;;5051134;28;20987;-73
2022/03/12 08:25:40;;;;;;;10.53;6.70;;;4.60;68.90;;;;;;5050376;28;20926;-72
2022/03/12 08:28:08;;;;;;;9.63;7.07;;;4.50;69.70;;;;;;5051104;28;20490;-73
2022/03/12 08:30:37;;;;;;;12.33;7.93;;;4.30;70.60;;;;;;5050850;28;20461;-73
2022/03/12 08:33:04;;;;;;;9.07;5.37;;;4.40;69.70;;;;;;5050754;28;20809;-71
2022/03/12 08:35:32;;;;;;;11.50;6.57;;;4.20;68.30;;;;;;5050601;28;20470;-74
2022/03/12 08:37:59;;;;;;;11.23;6.70;;;4.10;70.60;;;;;;5050784;28;20851;-70
2022/03/12 08:40:26;;;;;;;11.83;8.40;;;3.90;74.50;;;;;;5050871;28;20450;-72
2022/03/12 08:42:54;;;;;;;9.90;7.37;;;3.70;74.50;;;;;;5051029;28;20457;-72
2022/03/12 08:45:21;;;;;;;11.17;7.13;;;3.60;74.30;;;;;;5050395;28;20485;-72
2022/03/12 08:47:50;;;;;;;13.07;7.50;;;3.80;75.70;;;;;;5050329;28;20454;-70
2022/03/12 08:50:18;;;;;;;8.93;6.20;;;4.00;74.10;;;;;;5050612;28;20453;-72
2022/03/12 08:52:46;;;;;;;12.00;8.10;;;4.20;72.70;;;;;;5050604;28;20817;-70
2022/03/12 08:55:14;;;;;;;10.67;7.97;;;4.10;72.40;;;;;;5050319;28;20966;-70
2022/03/12 08:57:41;;;;;;;10.70;7.30;;;4.20;74.60;;;;;;5050436;28;20460;-71
2022/03/12 09:00:12;;;;;;;10.30;7.00;;;4.30;75.00;;;;;;5050369;28;20458;-73
2022/03/12 09:02:41;;;;;;;12.10;8.13;;;4.50;72.20;;;;;;5050342;28;20446;-73
2022/03/12 09:05:13;;;;;;;11.83;8.00;;;4.50;71.80;;;;;;5050186;28;20616;-72
2022/03/12 09:07:41;;;;;;;11.53;7.77;;;4.80;73.40;;;;;;5050390;28;20521;-72
2022/03/12 09:10:10;;;;;;;11.40;7.30;;;5.10;73.50;;;;;;5049987;28;20458;-71
2022/03/12 09:12:37;;;;;;;11.80;8.10;;;5.30;74.50;;;;;;5050155;28;20450;-67
2022/03/12 09:15:05;;;;;;;10.70;7.70;;;5.30;73.40;;;;;;5050103;28;20973;-74
2022/03/12 09:17:32;;;;;;;13.90;7.67;;;5.30;71.80;;;;;;5050422;28;20454;-74
2022/03/12 09:20:00;;;;;;;11.93;7.90;;;5.70;67.20;;;;;;5049938;28;20453;-78
2022/03/12 09:22:28;;;;;;;10.27;6.77;;;5.90;66.90;;;;;;5050689;28;20441;-81
2022/03/12 09:24:55;;;;;;;11.80;6.20;;;6.30;63.30;;;;;;5048594;28;20501;-78
2022/03/12 09:27:22;;;;;;;10.37;5.70;;;6.50;62.30;;;;;;5050028;28;20458;-75
2022/03/12 09:29:50;;;;;;;6.70;5.17;;;6.70;55.50;;;;;;5050102;28;20460;-75
2022/03/12 09:32:18;;;;;;;10.53;7.23;;;6.60;54.50;;;;;;5050094;28;20545;-78
2022/03/12 09:34:45;;;;;;;10.17;5.37;;;6.30;54.80;;;;;;5049918;28;20470;-72
2022/03/12 09:37:12;;;;;;;7.20;5.10;;;6.10;58.00;;;;;;5049836;28;20461;-74
2022/03/12 09:39:41;;;;;;;8.30;5.77;;;6.30;57.40;;;;;;5049905;28;20563;-71
2022/03/12 09:42:09;;;;;;;8.03;5.97;;;6.60;56.50;;;;;;5050338;28;20808;-75
2022/03/12 09:44:37;;;;;;;8.27;5.67;;;6.70;58.50;;;;;;5049666;28;20494;-73
2022/03/12 09:47:05;;;;;;;8.57;5.13;;;6.70;53.20;;;;;;5049755;28;20484;-73
2022/03/12 09:49:33;;;;;;;8.37;5.63;;;6.90;56.70;;;;;;5049685;28;20486;-75
2022/03/12 09:52:00;;;;;;;7.40;4.73;;;7.10;56.40;;;;;;5049416;28;20449;-72
2022/03/12 09:54:29;;;;;;;10.10;5.63;;;7.10;53.70;;;;;;5049546;28;20474;-75
2022/03/12 09:56:58;;;;;;;8.93;5.17;;;6.90;56.30;;;;;;5049678;28;20486;-71
2022/03/12 09:59:25;;;;;;;8.20;5.60;;;7.20;54.50;;;;;;5049678;28;20458;-70
2022/03/12 10:01:53;;;;;;;10.30;6.33;;;7.20;52.90;;;;;;5049479;28;20465;-75
2022/03/12 10:04:20;;;;;;;11.40;5.93;;;6.70;52.90;;;;;;5049211;28;20527;-75
2022/03/12 10:06:47;;;;;;;9.30;6.53;;;6.60;55.90;;;;;;5048989;28;20815;-72
2022/03/12 10:09:14;;;;;;;10.47;6.00;;;6.50;57.40;;;;;;5049282;28;20939;-75
2022/03/12 10:11:45;;;;;;;9.77;6.23;;;6.60;56.90;;;;;;5049210;28;20941;-75
2022/03/12 10:14:13;;;;;;;9.17;5.73;;;6.70;55.50;;;;;;5049377;28;20473;-72
2022/03/12 10:16:40;;;;;;;8.40;5.83;;;6.80;55.30;;;;;;5049408;28;20446;-79
2022/03/12 10:19:07;;;;;;;9.47;5.57;;;6.60;54.60;;;;;;5049141;28;20508;-76
2022/03/12 10:21:42;;;;;;;6.77;4.63;;;6.30;54.80;;;;;;5049432;28;20504;-76
2022/03/12 10:24:09;;;;;;;8.07;5.07;;;6.20;52.70;;;;;;5048956;28;20492;-77
2022/03/12 10:26:37;;;;;;;7.33;5.13;;;5.80;53.40;;;;;;5049404;28;20498;-79
2022/03/12 10:29:04;;;;;;;9.93;5.03;;;5.50;52.80;;;;;;5049326;28;20541;-74
2022/03/12 10:31:34;;;;;;;8.97;6.53;;;5.50;53.60;;;;;;5048927;28;20458;-74
2022/03/12 10:34:22;;;;;;;8.87;5.17;;;5.60;56.00;;;;;;5049180;28;20482;-70
2022/03/12 10:36:51;;;;;;;8.00;5.20;;;5.60;56.40;;;;;;5047057;28;20534;-71
2022/03/12 10:39:31;;;;;;;8.00;5.23;;;5.60;55.90;;;;;;5053188;28;20537;-73
2022/03/12 10:42:06;;;;;;;6.53;4.87;;;5.60;54.60;;;;;;5052619;28;20550;-73
2022/03/12 10:44:37;;;;;;;8.20;5.70;;;5.50;53.70;;;;;;5052867;28;20519;-72
2022/03/12 10:47:16;;;;;;;6.47;4.60;;;5.20;52.80;;;;;;5052221;28;20449;-72
2022/03/12 10:49:56;;;;;;;11.60;5.60;;;4.80;54.50;;;;;;5052898;28;20532;-71
2022/03/12 10:52:23;;;;;;;7.17;5.27;;;4.60;54.20;;;;;;5052514;28;20474;-74
2022/03/12 10:54:50;;;;;;;9.60;5.53;;;4.60;56.70;;;;;;5054776;28;20446;-71
2022/03/12 10:57:19;;;;;;;9.80;6.33;;;4.50;57.40;;;;;;5055356;28;20458;-73
2022/03/12 10:59:46;;;;;;;10.47;5.20;;;4.50;56.50;;;;;;5053294;28;20934;-75
2022/03/12 11:02:15;;;;;;;9.07;6.07;;;4.40;60.00;;;;;;5061429;28;20472;-77
2022/03/12 11:04:42;;;;;;;7.17;5.43;;;4.50;56.60;;;;;;5052794;28;20997;-79
2022/03/12 11:07:25;;;;;;;8.23;5.40;;;4.50;55.40;;;;;;5052482;28;20457;-77
2022/03/12 11:09:53;;;;;;;7.97;6.00;;;4.40;56.80;;;;;;5052764;28;20480;-77
2022/03/12 11:12:30;;;;;;;7.33;4.67;;;4.50;57.20;;;;;;5052563;28;20474;-76
2022/03/12 11:15:05;;;;;;;8.10;5.20;;;4.50;59.60;;;;;;5052741;28;20744;-76
2022/03/12 11:17:43;;;;;;;9.10;5.70;;;4.70;57.50;;;;;;5052767;28;21257;-80
2022/03/12 11:20:17;;;;;;;7.83;5.50;;;4.80;54.20;;;;;;5052362;28;20554;-79
2022/03/12 11:22:49;;;;;;;9.30;6.10;;;4.50;56.50;;;;;;5052552;28;20470;-74
2022/03/12 11:25:21;;;;;;;8.70;5.53;;;4.70;56.10;;;;;;5051618;28;20528;-70
2022/03/12 11:27:50;;;;;;;8.57;6.73;;;4.60;56.20;;;;;;5052510;28;20458;-76
2022/03/12 11:30:21;;;;;;;7.80;5.50;;;4.40;54.70;;;;;;5052003;28;20460;-77
2022/03/12 11:33:04;;;;;;;8.17;5.60;;;4.50;57.50;;;;;;5052218;28;20516;-73
2022/03/12 11:35:36;;;;;;;7.50;5.10;;;4.60;59.70;;;;;;5052280;28;21076;-75
2022/03/12 11:38:12;;;;;;;7.30;4.30;;;5.10;57.80;;;;;;5051898;28;20549;-70
2022/03/12 11:40:42;;;;;;;8.40;4.10;;;5.60;59.10;;;;;;5051924;28;20543;-69
2022/03/12 11:43:23;;;;;;;5.97;4.23;;;5.80;54.90;;;;;;5051956;28;20474;-74
2022/03/12 11:45:51;;;;;;;9.53;6.00;;;6.20;53.10;;;;;;5051497;28;20490;-73
2022/03/12 11:48:20;;;;;;;9.53;4.77;;;6.30;54.10;;;;;;5051073;28;20469;-80
2022/03/12 11:50:47;;;;;;;7.40;5.00;;;5.50;53.10;;;;;;5051970;28;20453;-73
2022/03/12 11:53:18;;;;;;;9.53;4.10;;;5.40;52.70;;;;;;5051835;28;20461;-75
2022/03/12 11:55:49;;;;;;;8.50;4.40;;;5.50;51.90;;;;;;5051604;28;20450;-75
2022/03/12 11:58:17;;;;;;;7.07;4.67;;;5.70;54.20;;;;;;5051648;28;20490;-78
2022/03/12 12:00:46;;;;;;;8.37;5.20;;;5.80;54.40;;;;;;5051982;28;20458;-79
2022/03/12 12:03:15;;;;;;;6.27;4.20;;;6.00;53.20;;;;;;5051544;28;20903;-81
2022/03/12 12:05:47;;;;;;;7.10;4.43;;;6.10;50.80;;;;;;5051362;28;20493;-77
2022/03/12 12:08:15;;;;;;;7.20;4.17;;;6.10;53.10;;;;;;5051863;28;20457;-71
2022/03/12 12:10:43;;;;;;;8.40;4.43;;;6.00;49.90;;;;;;5051828;28;20454;-80
2022/03/12 12:13:13;;;;;;;6.67;4.13;;;5.90;51.50;;;;;;5051718;28;20446;-74
2022/03/12 12:15:43;;;;;;;6.67;4.43;;;6.00;50.70;;;;;;5051310;28;20472;-68
2022/03/12 12:18:12;;;;;;;6.70;4.30;;;5.90;51.70;;;;;;5051567;28;20859;-76
2022/03/12 12:20:40;;;;;;;7.27;4.50;;;5.90;51.50;;;;;;5051504;28;20471;-76
2022/03/12 12:23:15;;;;;;;7.47;4.90;;;5.90;53.40;;;;;;5051445;28;20519;-74
2022/03/12 12:25:42;;;;;;;8.40;5.10;;;6.00;53.60;;;;;;5050251;28;20520;-70
2022/03/12 12:28:16;;;;;;;6.90;4.57;;;5.70;50.80;;;;;;5051203;28;20485;-69
2022/03/12 12:30:45;;;;;;;7.10;4.33;;;5.60;52.70;;;;;;5050741;28;20462;-70
2022/03/12 12:33:22;;;;;;;7.17;4.37;;;5.70;55.30;;;;;;5050992;28;20462;-72
2022/03/12 12:35:51;;;;;;;7.87;5.03;;;6.00;56.20;;;;;;5050967;28;20784;-73
2022/03/12 12:38:22;;;;;;;8.90;4.50;;;6.30;53.00;;;;;;5050890;28;20458;-75
2022/03/12 12:40:51;;;;;;;8.70;4.47;;;6.30;53.30;;;;;;5050625;28;20544;-76
2022/03/12 12:43:20;;;;;;;6.30;4.40;;;6.30;54.70;;;;;;5051144;28;20438;-75
2022/03/12 12:46:09;;;;;;;7.87;4.50;;;6.40;53.40;;;;;;5050847;28;20485;-77
2022/03/12 12:48:40;;;;;;;6.70;4.40;;;6.70;54.20;;;;;;5050758;28;20456;-73
2022/03/12 12:51:10;;;;;;;7.70;4.20;;;7.00;53.30;;;;;;5033528;28;20895;-74
2022/03/12 12:53:40;;;;;;;6.43;4.50;;;6.90;52.10;;;;;;5050291;28;21029;-76
2022/03/12 12:56:26;;;;;;;8.63;4.70;;;6.70;52.60;;;;;;5050608;28;20446;-78
2022/03/12 12:59:10;;;;;;;8.17;4.20;;;7.20;52.40;;;;;;5050700;28;20457;-77